createdAt,value
2023-05-02T00:01:36.284Z,34.13
2023-05-02T00:04:04.556Z,34.65
2023-05-02T00:06:32.300Z,34.52
2023-05-02T00:09:00.095Z,34.26
2023-05-02T00:11:27.762Z,34.40
2023-05-02T00:13:55.191Z,33.70
2023-05-02T00:16:22.734Z,33.74
2023-05-02T00:18:50.428Z,33.62
2023-05-02T00:21:17.829Z,35.40
2023-05-02T00:23:45.245Z,33.78
2023-05-02T00:26:12.914Z,34.25
2023-05-02T00:28:41.371Z,34.10
2023-05-02T00:31:09.421Z,34.88
2023-05-02T00:33:37.272Z,35.19
2023-05-02T00:36:04.733Z,35.19
2023-05-02T00:38:32.176Z,35.85
2023-05-02T00:41:00.259Z,36.47
2023-05-02T00:43:30.719Z,36.46
2023-05-02T00:45:58.657Z,35.57
2023-05-02T00:48:26.983Z,35.83
2023-05-02T00:50:54.439Z,35.46
2023-05-02T00:53:21.870Z,36.03
2023-05-02T00:55:49.654Z,35.33
2023-05-02T00:58:19.160Z,35.91
2023-05-02T01:01:02.982Z,35.39
2023-05-02T01:03:40.476Z,35.28
2023-05-02T01:06:08.694Z,35.10
2023-05-02T01:09:01.328Z,34.93
2023-05-02T01:11:41.040Z,35.86
2023-05-02T01:14:11.696Z,35.21
2023-05-02T01:16:42.087Z,35.42
2023-05-02T01:19:13.847Z,34.75
2023-05-02T01:21:41.580Z,34.18
2023-05-02T01:24:19.643Z,34.51
2023-05-02T01:27:08.077Z,33.40
2023-05-02T01:29:36.211Z,33.12
2023-05-02T01:32:04.784Z,33.11
2023-05-02T01:34:33.440Z,33.00
2023-05-02T01:37:01.326Z,32.61
2023-05-02T01:39:29.343Z,32.63
2023-05-02T01:41:58.176Z,32.48
2023-05-02T01:44:27.231Z,32.25
2023-05-02T01:46:55.456Z,32.53
2023-05-02T01:49:24.691Z,32.31
2023-05-02T01:51:52.851Z,32.27
2023-05-02T01:54:21.856Z,32.51
2023-05-02T01:56:50.232Z,32.45
2023-05-02T01:59:20.470Z,32.33
2023-05-02T02:01:48.719Z,32.46
2023-05-02T02:04:16.893Z,32.67
2023-05-02T02:06:47.000Z,33.11
2023-05-02T02:09:14.740Z,32.74
2023-05-02T02:12:11.469Z,32.55
2023-05-02T02:14:43.097Z,32.80
2023-05-02T02:17:16.696Z,32.61
2023-05-02T02:19:44.813Z,32.83
2023-05-02T02:22:13.773Z,32.91
2023-05-02T02:24:41.319Z,32.83
2023-05-02T02:27:09.144Z,34.06
2023-05-02T02:29:36.534Z,33.43
2023-05-02T02:32:04.038Z,33.17
2023-05-02T02:34:31.775Z,33.58
2023-05-02T02:37:09.452Z,33.29
2023-05-02T02:40:14.382Z,33.50
2023-05-02T02:42:56.130Z,33.71
2023-05-02T02:45:35.380Z,33.94
2023-05-02T02:48:29.081Z,33.64
2023-05-02T02:51:22.890Z,33.55
2023-05-02T02:54:22.973Z,33.96
2023-05-02T02:57:02.876Z,33.93
2023-05-02T02:59:34.524Z,34.38
2023-05-02T03:02:06.409Z,34.61
2023-05-02T03:04:44.078Z,34.56
2023-05-02T03:07:11.855Z,35.08
2023-05-02T03:09:43.650Z,34.78
2023-05-02T03:12:12.571Z,34.93
2023-05-02T03:14:41.124Z,35.00
2023-05-02T03:17:08.585Z,35.15
2023-05-02T03:19:37.307Z,35.60
2023-05-02T03:22:05.521Z,35.86
2023-05-02T03:24:33.918Z,35.49
2023-05-02T03:27:01.876Z,35.65
2023-05-02T03:29:29.899Z,36.14
2023-05-02T03:31:57.456Z,36.19
2023-05-02T03:34:25.524Z,36.06
2023-05-02T03:36:53.196Z,36.11
2023-05-02T03:39:20.739Z,36.34
2023-05-02T03:41:48.616Z,36.26
2023-05-02T03:44:17.031Z,36.17
2023-05-02T03:46:44.678Z,36.61
2023-05-02T03:49:12.499Z,36.56
2023-05-02T03:51:41.382Z,36.37
2023-05-02T03:54:09.880Z,36.32
2023-05-02T03:56:41.332Z,36.36
2023-05-02T03:59:11.929Z,36.78
2023-05-02T04:01:40.021Z,36.82
2023-05-02T04:04:08.765Z,36.64
2023-05-02T04:06:36.456Z,36.83
2023-05-02T04:09:04.208Z,36.78
2023-05-02T04:11:32.695Z,36.81
2023-05-02T04:14:00.407Z,36.96
2023-05-02T04:16:27.872Z,37.07
2023-05-02T04:18:56.027Z,37.33
2023-05-02T04:21:23.807Z,37.18
2023-05-02T04:23:51.244Z,37.24
2023-05-02T04:26:19.434Z,37.31
2023-05-02T04:28:47.443Z,37.30
2023-05-02T04:31:15.426Z,38.20
2023-05-02T04:33:44.415Z,37.39
2023-05-02T04:36:12.810Z,37.63
2023-05-02T04:38:40.987Z,37.93
2023-05-02T04:41:09.663Z,38.37
2023-05-02T04:43:38.725Z,37.93
2023-05-02T04:46:06.264Z,38.28
2023-05-02T04:48:34.332Z,37.79
2023-05-02T04:51:01.919Z,38.04
2023-05-02T04:53:29.930Z,38.28
2023-05-02T04:55:57.746Z,38.30
2023-05-02T04:58:25.253Z,38.79
2023-05-02T05:00:54.850Z,38.45
2023-05-02T05:03:22.619Z,38.49
2023-05-02T05:05:50.158Z,38.27
2023-05-02T05:08:18.245Z,38.24
2023-05-02T05:10:46.298Z,38.55
2023-05-02T05:13:14.103Z,38.26
2023-05-02T05:15:42.663Z,38.14
2023-05-02T05:18:10.983Z,38.67
2023-05-02T05:20:38.645Z,39.00
2023-05-02T05:23:06.330Z,38.51
2023-05-02T05:25:35.028Z,38.23
2023-05-02T05:28:02.405Z,37.83
2023-05-02T05:30:31.150Z,36.98
2023-05-02T05:32:59.470Z,37.32
2023-05-02T05:35:26.997Z,37.96
2023-05-02T05:37:55.789Z,38.05
2023-05-02T05:40:23.503Z,37.71
2023-05-02T05:42:51.417Z,38.18
2023-05-02T05:45:19.819Z,38.62
2023-05-02T05:47:47.802Z,38.02
2023-05-02T05:50:15.897Z,37.89
2023-05-02T05:52:44.229Z,39.23
2023-05-02T05:55:11.981Z,38.01
2023-05-02T05:57:39.545Z,38.44
2023-05-02T06:00:08.911Z,38.71
2023-05-02T06:02:43.105Z,39.08
2023-05-02T06:05:12.154Z,38.29
2023-05-02T06:07:39.787Z,40.26
2023-05-02T06:10:07.513Z,38.17
2023-05-02T06:12:35.872Z,38.23
2023-05-02T06:15:03.475Z,38.39
2023-05-02T06:17:31.399Z,38.89
2023-05-02T06:19:59.314Z,38.22
2023-05-02T06:22:27.720Z,38.32
2023-05-02T06:24:55.097Z,39.03
2023-05-02T06:27:22.803Z,38.60
2023-05-02T06:29:53.753Z,38.52
2023-05-02T06:32:21.721Z,38.14
2023-05-02T06:34:49.384Z,38.03
2023-05-02T06:37:16.740Z,39.49
2023-05-02T06:39:44.137Z,39.38
2023-05-02T06:42:11.793Z,38.94
2023-05-02T06:44:39.180Z,37.84
2023-05-02T06:47:07.539Z,37.42
2023-05-02T06:49:35.663Z,39.30
2023-05-02T06:52:03.077Z,38.92
2023-05-02T06:54:30.502Z,38.95
2023-05-02T06:56:58.154Z,37.85
2023-05-02T06:59:25.582Z,37.86
2023-05-02T07:01:52.926Z,37.97
2023-05-02T07:04:21.049Z,37.57
2023-05-02T07:06:48.648Z,38.70
2023-05-02T07:09:16.942Z,37.71
2023-05-02T07:11:44.623Z,38.48
2023-05-02T07:14:12.002Z,38.71
2023-05-02T07:16:39.584Z,37.52
2023-05-02T07:19:07.481Z,38.99
2023-05-02T07:21:34.920Z,38.07
2023-05-02T07:24:02.340Z,37.66
2023-05-02T07:26:30.351Z,37.58
2023-05-02T07:28:57.748Z,37.05
2023-05-02T07:31:25.132Z,37.27
2023-05-02T07:33:52.840Z,36.28
2023-05-02T07:36:20.249Z,35.56
2023-05-02T07:38:47.672Z,35.93
2023-05-02T07:41:15.478Z,36.12
2023-05-02T07:43:43.050Z,35.74
2023-05-02T07:46:11.112Z,36.47
2023-05-02T07:48:38.860Z,36.23
2023-05-02T07:51:10.068Z,35.72
2023-05-02T07:53:37.453Z,36.92
2023-05-02T07:56:08.980Z,36.96
2023-05-02T07:58:39.424Z,35.70
2023-05-02T08:01:07.146Z,35.83
2023-05-02T08:03:35.101Z,36.69
2023-05-02T08:06:02.667Z,36.52
2023-05-02T08:08:30.072Z,35.67
2023-05-02T08:10:57.757Z,35.32
2023-05-02T08:13:25.263Z,35.30
2023-05-02T08:15:57.886Z,36.28
2023-05-02T08:18:25.856Z,36.50
2023-05-02T08:20:55.799Z,35.43
2023-05-02T08:23:23.240Z,35.24
2023-05-02T08:25:50.915Z,34.62
2023-05-02T08:28:18.698Z,34.91
2023-05-02T08:30:46.093Z,34.30
2023-05-02T08:33:13.808Z,33.84
2023-05-02T08:35:41.422Z,34.12
2023-05-02T08:38:08.849Z,33.42
2023-05-02T08:40:42.048Z,33.64
2023-05-02T08:43:12.035Z,33.53
2023-05-02T08:45:41.688Z,34.37
2023-05-02T08:48:11.700Z,34.09
2023-05-02T08:50:41.806Z,34.44
2023-05-02T08:53:11.099Z,34.04
2023-05-02T08:55:40.597Z,34.34
2023-05-02T08:58:11.279Z,34.19
2023-05-02T09:00:42.855Z,34.09
2023-05-02T09:03:48.904Z,33.72
2023-05-02T09:06:18.372Z,34.04
2023-05-02T09:08:49.474Z,33.65
2023-05-02T09:11:17.642Z,34.71
2023-05-02T09:13:49.207Z,34.09
2023-05-02T09:16:20.038Z,34.54
2023-05-02T09:18:52.894Z,34.08
2023-05-02T09:21:27.834Z,33.82
2023-05-02T09:23:57.665Z,32.75
2023-05-02T09:26:31.065Z,32.74
2023-05-02T09:29:01.455Z,33.28
2023-05-02T09:31:54.251Z,32.91
2023-05-02T09:34:21.470Z,32.58
2023-05-02T09:36:51.878Z,31.49
2023-05-02T09:39:25.899Z,32.11
2023-05-02T09:41:54.311Z,32.20
2023-05-02T09:44:24.683Z,32.29
2023-05-02T09:46:57.544Z,32.38
2023-05-02T09:49:40.058Z,32.63
2023-05-02T09:52:14.716Z,31.50
2023-05-02T09:54:42.301Z,31.53
2023-05-02T09:57:11.070Z,31.67
2023-05-02T09:59:42.430Z,30.96
2023-05-02T10:02:12.072Z,32.00
2023-05-02T10:04:40.607Z,30.93
2023-05-02T10:07:10.566Z,30.87
2023-05-02T10:09:43.460Z,30.66
2023-05-02T10:12:15.061Z,31.26
2023-05-02T10:14:49.439Z,30.78
2023-05-02T10:17:29.865Z,29.88
2023-05-02T10:20:01.244Z,30.02
2023-05-02T10:22:29.634Z,29.37
2023-05-02T10:24:58.259Z,30.43
2023-05-02T10:27:26.041Z,30.24
2023-05-02T10:29:54.564Z,29.76
2023-05-02T10:32:23.198Z,29.10
2023-05-02T10:34:51.653Z,30.61
2023-05-02T10:37:20.008Z,29.89
2023-05-02T10:39:47.443Z,29.50
2023-05-02T10:42:15.071Z,29.36
2023-05-02T10:44:42.794Z,29.01
2023-05-02T10:47:28.265Z,29.68
2023-05-02T10:49:58.911Z,30.10
2023-05-02T10:52:30.433Z,30.72
2023-05-02T10:55:17.081Z,30.70
2023-05-02T10:57:59.750Z,30.71
2023-05-02T11:00:30.157Z,29.99
2023-05-02T11:02:58.019Z,30.41
2023-05-02T11:05:26.580Z,29.86
2023-05-02T11:08:17.984Z,29.82
2023-05-02T11:10:47.529Z,30.07
2023-05-02T11:13:15.587Z,31.02
2023-05-02T11:15:42.912Z,30.24
2023-05-02T11:18:12.809Z,30.56
2023-05-02T11:20:42.456Z,30.08
2023-05-02T11:23:16.143Z,30.36
2023-05-02T11:25:48.128Z,30.06
2023-05-02T11:28:34.418Z,29.81
2023-05-02T11:31:02.769Z,30.09
2023-05-02T11:33:30.332Z,29.98
2023-05-02T11:35:58.741Z,30.11
2023-05-02T11:38:27.509Z,30.47
2023-05-02T11:40:57.598Z,30.93
2023-05-02T11:43:28.186Z,28.98
2023-05-02T11:46:00.055Z,30.49
2023-05-02T11:48:28.029Z,30.34
2023-05-02T11:50:57.902Z,28.64
2023-05-02T11:53:27.848Z,29.12
2023-05-02T11:56:04.931Z,28.28
2023-05-02T11:58:33.777Z,29.07
2023-05-02T12:01:15.184Z,27.97
2023-05-02T12:03:43.838Z,28.26
2023-05-02T12:06:13.587Z,27.45
2023-05-02T12:08:43.022Z,27.01
2023-05-02T12:11:13.781Z,27.73
2023-05-02T12:13:48.849Z,27.35
2023-05-02T12:16:17.289Z,26.93
2023-05-02T12:18:45.504Z,27.51
2023-05-02T12:21:13.061Z,27.10
2023-05-02T12:23:42.329Z,27.65
2023-05-02T12:26:31.925Z,27.80
2023-05-02T12:29:00.896Z,27.03
2023-05-02T12:31:31.274Z,27.49
2023-05-02T12:34:00.694Z,27.58
2023-05-02T12:36:28.928Z,27.02
2023-05-02T12:38:59.728Z,27.11
2023-05-02T12:41:37.677Z,27.11
2023-05-02T12:44:06.108Z,26.95
2023-05-02T12:46:33.874Z,27.26
2023-05-02T12:49:12.267Z,27.16
2023-05-02T12:51:41.523Z,27.94
2023-05-02T12:54:08.931Z,27.98
2023-05-02T12:56:40.649Z,28.46
2023-05-02T12:59:08.483Z,28.13
2023-05-02T13:01:36.239Z,28.03
2023-05-02T13:04:04.231Z,28.29
2023-05-02T13:06:32.245Z,28.94
2023-05-02T13:09:00.123Z,28.01
2023-05-02T13:11:28.146Z,27.93
2023-05-02T13:13:56.603Z,28.99
2023-05-02T13:16:24.083Z,29.21
2023-05-02T13:18:51.645Z,27.69
2023-05-02T13:21:19.326Z,28.40
2023-05-02T13:23:51.891Z,27.21
2023-05-02T13:26:19.589Z,26.84
2023-05-02T13:28:47.007Z,27.32
2023-05-02T13:31:14.473Z,26.95
2023-05-02T13:33:42.264Z,27.32
2023-05-02T13:36:09.631Z,27.86
2023-05-02T13:38:37.030Z,28.07
2023-05-02T13:41:05.342Z,28.39
2023-05-02T13:43:32.774Z,28.70
2023-05-02T13:46:00.368Z,28.95
2023-05-02T13:48:28.284Z,28.75
2023-05-02T13:50:55.799Z,29.12
2023-05-02T13:53:23.388Z,28.29
2023-05-02T13:55:51.318Z,28.52
2023-05-02T13:58:18.695Z,29.20
2023-05-02T14:00:47.300Z,29.81
2023-05-02T14:03:15.134Z,29.75
2023-05-02T14:05:43.751Z,29.81
2023-05-02T14:08:12.035Z,29.92
2023-05-02T14:10:39.744Z,29.56
2023-05-02T14:13:07.157Z,29.24
2023-05-02T14:15:34.659Z,29.84
2023-05-02T14:18:02.389Z,29.72
2023-05-02T14:20:29.855Z,30.17
2023-05-02T14:22:57.213Z,29.75
2023-05-02T14:25:24.948Z,29.30
2023-05-02T14:27:52.393Z,29.97
2023-05-02T14:30:19.888Z,29.76
2023-05-02T14:32:47.641Z,29.26
2023-05-02T14:35:15.134Z,28.94
2023-05-02T14:37:45.046Z,28.43
2023-05-02T14:40:14.065Z,29.07
2023-05-02T14:42:42.127Z,28.07
2023-05-02T14:45:10.099Z,28.43
2023-05-02T14:47:38.129Z,29.46
2023-05-02T14:50:06.381Z,29.33
2023-05-02T14:52:33.929Z,29.22
2023-05-02T14:55:02.585Z,29.60
2023-05-02T14:57:30.992Z,30.24
2023-05-02T14:59:58.428Z,30.46
2023-05-02T15:02:26.440Z,30.20
2023-05-02T15:04:53.927Z,30.47
2023-05-02T15:07:21.784Z,30.22
2023-05-02T15:09:49.570Z,29.85
2023-05-02T15:12:16.944Z,29.55
2023-05-02T15:14:44.377Z,28.71
2023-05-02T15:17:12.058Z,28.92
2023-05-02T15:19:39.494Z,28.77
2023-05-02T15:22:06.928Z,29.42
2023-05-02T15:24:34.575Z,29.04
2023-05-02T15:27:01.998Z,28.98
2023-05-02T15:29:29.449Z,28.80
2023-05-02T15:31:57.190Z,28.98
2023-05-02T15:34:24.695Z,28.96
2023-05-02T15:36:52.452Z,28.97
2023-05-02T15:39:20.111Z,29.86
2023-05-02T15:41:48.051Z,30.97
2023-05-02T15:44:15.502Z,34.21
2023-05-02T15:46:46.794Z,34.39
2023-05-02T15:49:15.181Z,34.48
2023-05-02T15:51:42.846Z,35.40
2023-05-02T15:54:10.309Z,36.16
2023-05-02T15:56:37.873Z,36.87
2023-05-02T15:59:05.596Z,36.91
2023-05-02T16:01:33.062Z,36.81
2023-05-02T16:04:01.231Z,37.78
2023-05-02T16:06:28.893Z,37.94
2023-05-02T16:08:56.556Z,37.16
2023-05-02T16:11:24.256Z,37.13
2023-05-02T16:13:52.421Z,36.47
2023-05-02T16:16:19.885Z,36.11
2023-05-02T16:18:47.543Z,36.74
2023-05-02T16:21:15.009Z,36.50
2023-05-02T16:23:42.446Z,37.31
2023-05-02T16:26:10.336Z,37.26
2023-05-02T16:28:37.766Z,36.68
2023-05-02T16:31:11.134Z,36.82
2023-05-02T16:33:39.427Z,36.87
2023-05-02T16:36:07.555Z,36.19
2023-05-02T16:38:36.594Z,35.46
2023-05-02T16:41:07.017Z,35.60
2023-05-02T16:43:34.921Z,35.27
2023-05-02T16:46:03.480Z,34.95
2023-05-02T16:48:31.192Z,34.82
2023-05-02T16:51:01.072Z,35.15
2023-05-02T16:53:30.931Z,34.92
2023-05-02T16:55:59.679Z,34.93
2023-05-02T16:58:28.896Z,34.88
2023-05-02T17:00:56.485Z,35.24
2023-05-02T17:03:24.315Z,35.89
2023-05-02T17:05:51.766Z,35.61
2023-05-02T17:08:19.151Z,36.35
2023-05-02T17:10:50.449Z,35.89
2023-05-02T17:13:17.962Z,35.48
2023-05-02T17:15:45.366Z,37.38
2023-05-02T17:18:13.128Z,37.48
2023-05-02T17:20:41.382Z,40.31
2023-05-02T17:23:09.833Z,40.05
2023-05-02T17:25:38.375Z,38.97
2023-05-02T17:28:06.480Z,38.79
2023-05-02T17:30:33.991Z,39.54
2023-05-02T17:33:01.853Z,39.14
2023-05-02T17:35:29.353Z,39.08
2023-05-02T17:37:56.750Z,39.49
2023-05-02T17:40:24.380Z,39.18
2023-05-02T17:42:51.792Z,39.54
2023-05-02T17:45:19.246Z,40.11
2023-05-02T17:47:47.008Z,40.86
2023-05-02T17:50:14.512Z,41.22
2023-05-02T17:52:42.390Z,40.74
2023-05-02T17:55:10.438Z,41.52
2023-05-02T17:57:37.890Z,41.84
2023-05-02T18:00:08.124Z,42.35
2023-05-02T18:02:40.003Z,43.02
2023-05-02T18:05:08.109Z,43.03
2023-05-02T18:07:35.832Z,43.23
2023-05-02T18:10:05.224Z,44.55
2023-05-02T18:12:33.747Z,45.34
2023-05-02T18:15:03.486Z,45.15
2023-05-02T18:17:31.958Z,46.02
2023-05-02T18:19:59.481Z,45.99
2023-05-02T18:22:27.949Z,46.46
2023-05-02T18:24:55.826Z,46.65
2023-05-02T18:27:23.524Z,48.52
2023-05-02T18:29:51.532Z,49.74
2023-05-02T18:32:19.097Z,50.70
2023-05-02T18:34:46.678Z,51.56
2023-05-02T18:37:14.336Z,51.89
2023-05-02T18:39:42.126Z,51.66
2023-05-02T18:42:10.905Z,53.18
2023-05-02T18:44:38.671Z,53.20
2023-05-02T18:47:06.395Z,56.00
2023-05-02T18:49:33.874Z,55.12
2023-05-02T18:52:03.028Z,56.18
2023-05-02T18:54:30.650Z,55.62
2023-05-02T18:56:58.085Z,57.04
2023-05-02T18:59:25.788Z,57.58
2023-05-02T19:01:53.888Z,57.65
2023-05-02T19:04:21.633Z,56.90
2023-05-02T19:06:49.610Z,57.38
2023-05-02T19:09:18.563Z,56.42
2023-05-02T19:11:46.090Z,56.34
2023-05-02T19:14:13.895Z,57.30
2023-05-02T19:16:41.609Z,57.52
2023-05-02T19:19:10.087Z,57.81
2023-05-02T19:21:38.127Z,58.90
2023-05-02T19:24:05.988Z,58.58
2023-05-02T19:26:33.468Z,59.12
2023-05-02T19:29:01.354Z,58.90
2023-05-02T19:31:28.937Z,58.74
2023-05-02T19:33:56.353Z,59.04
2023-05-02T19:36:24.847Z,58.13
2023-05-02T19:38:54.022Z,57.38
2023-05-02T19:41:24.725Z,57.61
2023-05-02T19:43:52.771Z,57.62
2023-05-02T19:46:20.443Z,57.96
2023-05-02T19:48:48.219Z,58.37
2023-05-02T19:51:16.152Z,58.07
2023-05-02T19:53:43.600Z,58.37
2023-05-02T19:56:11.109Z,57.92
2023-05-02T19:58:39.334Z,57.87
2023-05-02T20:01:07.227Z,57.74
2023-05-02T20:03:35.510Z,58.04
2023-05-02T20:06:03.470Z,57.95
2023-05-02T20:08:31.509Z,57.99
2023-05-02T20:10:59.225Z,58.63
2023-05-02T20:13:27.284Z,58.00
2023-05-02T20:15:54.732Z,58.57
2023-05-02T20:18:22.490Z,58.65
2023-05-02T20:20:49.958Z,58.88
2023-05-02T20:23:17.364Z,58.31
2023-05-02T20:25:45.629Z,58.78
2023-05-02T20:28:13.515Z,58.89
2023-05-02T20:30:42.061Z,59.52
2023-05-02T20:33:15.426Z,60.32
2023-05-02T20:35:44.691Z,60.54
2023-05-02T20:38:12.528Z,60.36
2023-05-02T20:40:40.753Z,59.91
2023-05-02T20:43:09.090Z,60.68
2023-05-02T20:45:36.815Z,60.60
2023-05-02T20:48:04.427Z,59.51
2023-05-02T20:50:32.184Z,59.84
2023-05-02T20:52:59.922Z,59.13
2023-05-02T20:55:27.742Z,59.61
2023-05-02T20:57:55.240Z,60.86
2023-05-02T21:00:22.980Z,60.38
2023-05-02T21:02:50.709Z,60.46
2023-05-02T21:05:18.337Z,60.88
2023-05-02T21:07:46.552Z,60.94
2023-05-02T21:10:15.019Z,60.84
2023-05-02T21:12:42.664Z,61.39
2023-05-02T21:15:10.356Z,61.07
2023-05-02T21:17:39.820Z,61.11
2023-05-02T21:20:07.890Z,60.71
2023-05-02T21:22:35.612Z,60.91
2023-05-02T21:25:03.344Z,60.89
2023-05-02T21:27:30.835Z,60.32
2023-05-02T21:29:58.549Z,60.15
2023-05-02T21:32:26.048Z,60.11
2023-05-02T21:34:53.749Z,59.35
2023-05-02T21:37:22.367Z,59.43
2023-05-02T21:39:49.791Z,59.63
2023-05-02T21:42:17.238Z,60.89
2023-05-02T21:44:44.899Z,59.42
2023-05-02T21:47:12.461Z,59.64
2023-05-02T21:49:40.077Z,61.36
2023-05-02T21:52:07.953Z,61.44
2023-05-02T21:54:35.702Z,59.95
2023-05-02T21:57:03.378Z,59.23
2023-05-02T21:59:31.173Z,59.46
2023-05-02T22:01:58.621Z,59.36
2023-05-02T22:04:26.759Z,58.98
2023-05-02T22:06:54.580Z,58.58
2023-05-02T22:09:22.512Z,58.32
2023-05-02T22:11:50.221Z,58.27
2023-05-02T22:14:17.662Z,59.26
2023-05-02T22:16:45.097Z,59.59
2023-05-02T22:19:14.628Z,58.84
2023-05-02T22:21:42.153Z,59.44
2023-05-02T22:24:09.606Z,59.26
2023-05-02T22:26:37.307Z,58.68
2023-05-02T22:29:04.950Z,59.66
2023-05-02T22:31:32.408Z,59.11
2023-05-02T22:34:00.182Z,58.62
2023-05-02T22:36:27.891Z,58.87
2023-05-02T22:38:55.499Z,58.61
2023-05-02T22:41:23.169Z,58.54
2023-05-02T22:43:50.527Z,59.38
2023-05-02T22:46:18.469Z,59.41
2023-05-02T22:48:46.691Z,59.45
2023-05-02T22:51:14.135Z,59.57
2023-05-02T22:53:41.941Z,59.05
2023-05-02T22:56:09.596Z,58.91
2023-05-02T22:58:37.040Z,58.75
2023-05-02T23:01:04.501Z,58.69
2023-05-02T23:03:32.372Z,58.90
2023-05-02T23:05:59.874Z,58.74
2023-05-02T23:08:27.281Z,59.01
2023-05-02T23:10:55.973Z,59.26
2023-05-02T23:13:23.804Z,59.44
2023-05-02T23:15:54.605Z,59.08
2023-05-02T23:18:22.800Z,59.45
2023-05-02T23:20:50.851Z,59.82
2023-05-02T23:23:18.389Z,59.55
2023-05-02T23:25:46.114Z,59.21
2023-05-02T23:28:13.568Z,59.01
2023-05-02T23:30:41.415Z,59.06
2023-05-02T23:33:09.174Z,59.49
2023-05-02T23:35:36.649Z,59.58
2023-05-02T23:38:08.068Z,59.38
2023-05-02T23:40:36.014Z,59.38
2023-05-02T23:43:03.504Z,59.91
2023-05-02T23:45:30.895Z,59.82
2023-05-02T23:47:58.619Z,60.02
2023-05-02T23:50:26.181Z,60.05
2023-05-02T23:52:53.590Z,60.28
2023-05-02T23:55:21.267Z,60.15
2023-05-02T23:57:48.660Z,60.54
